sensor_id;sensor_type;location;lat;lon;timestamp;noise_LAeq;noise_LA_min;noise_LA_max;noise_LA01;noise_LA95
57439;Laerm;43282;47.188;8.896;2023-04-15T00:02:13;47.00;34.69;65.18;;
57439;Laerm;43282;47.188;8.896;2023-04-15T00:04:38;44.51;38.67;59.66;;
57439;Laerm;43282;47.188;8.896;2023-04-15T00:07:03;46.05;36.20;61.85;;
57439;Laerm;43282;47.188;8.896;2023-04-15T00:09:29;46.33;35.66;61.46;;
57439;Laerm;43282;47.188;8.896;2023-04-15T00:11:54;51.44;39.58;66.76;;
57439;Laerm;43282;47.188;8.896;2023-04-15T00:14:19;42.65;35.94;51.03;;
57439;Laerm;43282;47.188;8.896;2023-04-15T00:16:45;47.80;39.21;63.13;;
57439;Laerm;43282;47.188;8.896;2023-04-15T00:19:10;44.82;39.21;56.27;;
57439;Laerm;43282;47.188;8.896;2023-04-15T00:21:35;46.75;36.20;62.00;;
57439;Laerm;43282;47.188;8.896;2023-04-15T00:24:01;45.38;36.91;61.08;;
57439;Laerm;43282;47.188;8.896;2023-04-15T00:26:26;44.58;38.21;59.97;;
57439;Laerm;43282;47.188;8.896;2023-04-15T00:28:51;40.41;36.69;43.09;;
57439;Laerm;43282;47.188;8.896;2023-04-15T00:31:17;40.56;36.91;43.77;;
57439;Laerm;43282;47.188;8.896;2023-04-15T00:33:43;41.27;37.70;47.95;;
57439;Laerm;43282;47.188;8.896;2023-04-15T00:36:08;41.32;37.52;43.63;;
57439;Laerm;43282;47.188;8.896;2023-04-15T00:38:37;40.71;37.12;44.07;;
57439;Laerm;43282;47.188;8.896;2023-04-15T00:41:03;47.16;38.05;65.50;;
57439;Laerm;43282;47.188;8.896;2023-04-15T00:43:28;41.51;38.60;43.68;;
57439;Laerm;43282;47.188;8.896;2023-04-15T00:45:53;45.54;39.81;61.02;;
57439;Laerm;43282;47.188;8.896;2023-04-15T00:48:21;48.41;39.34;58.25;;
57439;Laerm;43282;47.188;8.896;2023-04-15T00:50:47;41.40;36.56;45.69;;
57439;Laerm;43282;47.188;8.896;2023-04-15T00:53:12;46.07;37.32;63.23;;
57439;Laerm;43282;47.188;8.896;2023-04-15T00:55:37;43.17;36.69;58.15;;
57439;Laerm;43282;47.188;8.896;2023-04-15T00:58:03;44.46;36.91;58.71;;
57439;Laerm;43282;47.188;8.896;2023-04-15T01:00:29;44.76;36.91;58.49;;
57439;Laerm;43282;47.188;8.896;2023-04-15T01:02:55;46.08;36.20;62.49;;
57439;Laerm;43282;47.188;8.896;2023-04-15T01:05:20;40.62;35.31;50.22;;
57439;Laerm;43282;47.188;8.896;2023-04-15T01:07:46;46.83;37.32;61.83;;
57439;Laerm;43282;47.188;8.896;2023-04-15T01:10:12;43.29;39.58;50.18;;
57439;Laerm;43282;47.188;8.896;2023-04-15T01:12:37;43.01;39.08;52.34;;
57439;Laerm;43282;47.188;8.896;2023-04-15T01:15:03;43.08;39.34;53.28;;
57439;Laerm;43282;47.188;8.896;2023-04-15T01:17:29;45.08;39.46;60.28;;
57439;Laerm;43282;47.188;8.896;2023-04-15T01:19:55;42.93;39.58;54.68;;
57439;Laerm;43282;47.188;8.896;2023-04-15T01:22:22;45.91;39.46;62.06;;
57439;Laerm;43282;47.188;8.896;2023-04-15T01:24:50;46.51;37.70;63.39;;
57439;Laerm;43282;47.188;8.896;2023-04-15T01:27:20;45.98;39.70;57.08;;
57439;Laerm;43282;47.188;8.896;2023-04-15T01:29:45;47.63;39.46;61.54;;
57439;Laerm;43282;47.188;8.896;2023-04-15T01:32:11;48.56;39.08;62.79;;
57439;Laerm;43282;47.188;8.896;2023-04-15T01:34:36;45.58;39.92;57.94;;
57439;Laerm;43282;47.188;8.896;2023-04-15T01:37:01;50.22;39.46;62.76;;
57439;Laerm;43282;47.188;8.896;2023-04-15T01:39:27;45.21;37.70;57.91;;
57439;Laerm;43282;47.188;8.896;2023-04-15T01:41:52;44.08;37.32;58.31;;
57439;Laerm;43282;47.188;8.896;2023-04-15T01:44:17;48.87;37.32;65.29;;
57439;Laerm;43282;47.188;8.896;2023-04-15T01:46:43;47.71;35.94;63.13;;
57439;Laerm;43282;47.188;8.896;2023-04-15T01:49:08;48.59;36.91;62.67;;
57439;Laerm;43282;47.188;8.896;2023-04-15T01:51:33;45.89;37.52;59.78;;
57439;Laerm;43282;47.188;8.896;2023-04-15T01:53:59;43.17;37.70;55.99;;
57439;Laerm;43282;47.188;8.896;2023-04-15T01:56:24;45.50;38.21;56.31;;
57439;Laerm;43282;47.188;8.896;2023-04-15T01:58:50;46.59;37.52;63.03;;
57439;Laerm;43282;47.188;8.896;2023-04-15T02:01:16;43.71;36.20;53.94;;
57439;Laerm;43282;47.188;8.896;2023-04-15T02:03:43;50.35;40.71;66.66;;
57439;Laerm;43282;47.188;8.896;2023-04-15T02:06:09;46.71;38.52;57.57;;
57439;Laerm;43282;47.188;8.896;2023-04-15T02:08:34;51.03;39.70;64.84;;
57439;Laerm;43282;47.188;8.896;2023-04-15T02:10:59;47.64;40.62;59.05;;
57439;Laerm;43282;47.188;8.896;2023-04-15T02:13:25;50.15;36.69;67.48;;
57439;Laerm;43282;47.188;8.896;2023-04-15T02:15:51;46.72;38.95;58.05;;
57439;Laerm;43282;47.188;8.896;2023-04-15T02:18:17;48.67;39.92;63.24;;
57439;Laerm;43282;47.188;8.896;2023-04-15T02:20:42;48.23;39.92;61.03;;
57439;Laerm;43282;47.188;8.896;2023-04-15T02:23:08;47.17;37.88;62.79;;
57439;Laerm;43282;47.188;8.896;2023-04-15T02:25:33;49.18;38.18;62.00;;
57439;Laerm;43282;47.188;8.896;2023-04-15T02:27:58;48.86;39.70;61.02;;
57439;Laerm;43282;47.188;8.896;2023-04-15T02:30:24;47.91;38.95;62.06;;
57439;Laerm;43282;47.188;8.896;2023-04-15T02:32:50;48.41;40.33;59.07;;
57439;Laerm;43282;47.188;8.896;2023-04-15T02:35:15;47.91;40.98;58.46;;
57439;Laerm;43282;47.188;8.896;2023-04-15T02:37:43;47.11;38.05;58.28;;
57439;Laerm;43282;47.188;8.896;2023-04-15T02:40:10;46.45;39.70;59.20;;
57439;Laerm;43282;47.188;8.896;2023-04-15T02:42:36;47.32;38.05;57.43;;
57439;Laerm;43282;47.188;8.896;2023-04-15T02:45:01;46.92;38.37;60.10;;
57439;Laerm;43282;47.188;8.896;2023-04-15T02:47:27;45.37;37.52;57.41;;
57439;Laerm;43282;47.188;8.896;2023-04-15T02:49:52;48.91;40.53;65.60;;
57439;Laerm;43282;47.188;8.896;2023-04-15T02:52:17;48.58;39.21;64.80;;
57439;Laerm;43282;47.188;8.896;2023-04-15T02:54:43;47.17;37.52;59.33;;
57439;Laerm;43282;47.188;8.896;2023-04-15T02:57:08;49.32;40.03;60.21;;
57439;Laerm;43282;47.188;8.896;2023-04-15T02:59:35;45.74;38.67;58.71;;
57439;Laerm;43282;47.188;8.896;2023-04-15T03:02:00;46.31;39.46;57.76;;
57439;Laerm;43282;47.188;8.896;2023-04-15T03:04:25;51.99;40.03;68.63;;
57439;Laerm;43282;47.188;8.896;2023-04-15T03:06:51;43.78;38.21;56.09;;
57439;Laerm;43282;47.188;8.896;2023-04-15T03:09:16;49.61;39.58;64.34;;
57439;Laerm;43282;47.188;8.896;2023-04-15T03:11:41;46.26;39.92;57.08;;
57439;Laerm;43282;47.188;8.896;2023-04-15T03:14:07;52.93;40.71;71.31;;
57439;Laerm;43282;47.188;8.896;2023-04-15T03:16:32;49.25;40.13;63.35;;
57439;Laerm;43282;47.188;8.896;2023-04-15T03:18:57;50.64;40.62;65.57;;
57439;Laerm;43282;47.188;8.896;2023-04-15T03:21:22;51.59;41.96;67.62;;
57439;Laerm;43282;47.188;8.896;2023-04-15T03:23:48;50.54;41.14;62.78;;
57439;Laerm;43282;47.188;8.896;2023-04-15T03:26:23;48.34;41.22;58.53;;
57439;Laerm;43282;47.188;8.896;2023-04-15T03:28:50;49.29;39.58;64.93;;
57439;Laerm;43282;47.188;8.896;2023-04-15T03:31:15;46.44;40.13;59.14;;
57439;Laerm;43282;47.188;8.896;2023-04-15T03:33:40;47.91;38.81;64.16;;
57439;Laerm;43282;47.188;8.896;2023-04-15T03:36:06;51.96;42.93;64.42;;
57439;Laerm;43282;47.188;8.896;2023-04-15T03:38:31;48.63;41.06;63.72;;
57439;Laerm;43282;47.188;8.896;2023-04-15T03:40:56;49.27;39.70;61.17;;
57439;Laerm;43282;47.188;8.896;2023-04-15T03:43:21;51.20;40.71;63.18;;
57439;Laerm;43282;47.188;8.896;2023-04-15T03:45:47;53.48;41.38;68.15;;
57439;Laerm;43282;47.188;8.896;2023-04-15T03:48:12;51.82;42.47;65.50;;
57439;Laerm;43282;47.188;8.896;2023-04-15T03:50:37;51.90;41.75;66.52;;
57439;Laerm;43282;47.188;8.896;2023-04-15T03:53:03;51.38;41.14;65.58;;
57439;Laerm;43282;47.188;8.896;2023-04-15T03:55:28;49.60;40.03;64.85;;
57439;Laerm;43282;47.188;8.896;2023-04-15T03:57:53;53.64;42.03;65.27;;
57439;Laerm;43282;47.188;8.896;2023-04-15T04:00:19;54.26;41.30;68.63;;
57439;Laerm;43282;47.188;8.896;2023-04-15T04:02:44;52.09;44.39;66.64;;
57439;Laerm;43282;47.188;8.896;2023-04-15T04:05:10;55.40;44.73;76.19;;
57439;Laerm;43282;47.188;8.896;2023-04-15T04:07:35;63.25;42.53;81.23;;
57439;Laerm;43282;47.188;8.896;2023-04-15T04:10:01;59.86;42.93;77.33;;
57439;Laerm;43282;47.188;8.896;2023-04-15T04:12:27;57.64;44.27;76.51;;
57439;Laerm;43282;47.188;8.896;2023-04-15T04:14:53;60.09;46.13;71.39;;
57439;Laerm;43282;47.188;8.896;2023-04-15T04:17:18;59.78;43.77;73.72;;
57439;Laerm;43282;47.188;8.896;2023-04-15T04:19:43;60.69;46.30;74.58;;
57439;Laerm;43282;47.188;8.896;2023-04-15T04:22:09;54.88;43.46;66.02;;
57439;Laerm;43282;47.188;8.896;2023-04-15T04:24:34;54.56;45.27;66.62;;
57439;Laerm;43282;47.188;8.896;2023-04-15T04:26:59;56.77;44.87;67.53;;
57439;Laerm;43282;47.188;8.896;2023-04-15T04:29:25;55.68;43.81;68.47;;
57439;Laerm;43282;47.188;8.896;2023-04-15T04:31:51;57.09;46.57;70.51;;
57439;Laerm;43282;47.188;8.896;2023-04-15T04:34:16;57.53;43.58;68.74;;
57439;Laerm;43282;47.188;8.896;2023-04-15T04:36:41;57.83;46.43;69.58;;
57439;Laerm;43282;47.188;8.896;2023-04-15T04:39:06;56.31;45.07;68.59;;
57439;Laerm;43282;47.188;8.896;2023-04-15T04:41:32;56.27;46.20;68.86;;
57439;Laerm;43282;47.188;8.896;2023-04-15T04:43:57;56.41;43.63;72.20;;
57439;Laerm;43282;47.188;8.896;2023-04-15T04:46:22;57.29;46.05;69.78;;
57439;Laerm;43282;47.188;8.896;2023-04-15T04:48:48;55.99;43.99;68.93;;
57439;Laerm;43282;47.188;8.896;2023-04-15T04:51:13;58.32;46.82;69.91;;
57439;Laerm;43282;47.188;8.896;2023-04-15T04:53:38;58.48;47.00;69.78;;
57439;Laerm;43282;47.188;8.896;2023-04-15T04:56:04;58.27;46.33;70.33;;
57439;Laerm;43282;47.188;8.896;2023-04-15T04:58:29;56.49;45.89;68.42;;
57439;Laerm;43282;47.188;8.896;2023-04-15T05:00:54;54.99;44.73;65.54;;
57439;Laerm;43282;47.188;8.896;2023-04-15T05:03:20;56.53;46.55;69.48;;
57439;Laerm;43282;47.188;8.896;2023-04-15T05:05:46;56.26;47.85;70.42;;
57439;Laerm;43282;47.188;8.896;2023-04-15T05:08:13;55.33;47.26;68.73;;
57439;Laerm;43282;47.188;8.896;2023-04-15T05:10:38;57.80;46.66;71.12;;
57439;Laerm;43282;47.188;8.896;2023-04-15T05:13:03;56.83;49.24;67.75;;
57439;Laerm;43282;47.188;8.896;2023-04-15T05:15:28;57.53;47.67;69.23;;
57439;Laerm;43282;47.188;8.896;2023-04-15T05:17:54;56.60;47.52;68.04;;
57439;Laerm;43282;47.188;8.896;2023-04-15T05:20:19;55.56;46.15;66.46;;
57439;Laerm;43282;47.188;8.896;2023-04-15T05:22:45;56.08;45.91;66.13;;
57439;Laerm;43282;47.188;8.896;2023-04-15T05:25:10;56.40;46.59;64.83;;
57439;Laerm;43282;47.188;8.896;2023-04-15T05:27:36;56.49;46.73;65.57;;
57439;Laerm;43282;47.188;8.896;2023-04-15T05:30:01;57.77;45.01;66.31;;
57439;Laerm;43282;47.188;8.896;2023-04-15T05:32:26;57.62;50.26;68.65;;
57439;Laerm;43282;47.188;8.896;2023-04-15T05:34:51;56.89;49.46;67.97;;
57439;Laerm;43282;47.188;8.896;2023-04-15T05:37:17;56.16;47.82;63.99;;
57439;Laerm;43282;47.188;8.896;2023-04-15T05:39:45;58.07;50.19;71.17;;
57439;Laerm;43282;47.188;8.896;2023-04-15T05:42:10;61.30;50.00;83.10;;
57439;Laerm;43282;47.188;8.896;2023-04-15T05:44:36;58.29;50.51;69.42;;
57439;Laerm;43282;47.188;8.896;2023-04-15T05:47:01;58.06;48.32;69.33;;
57439;Laerm;43282;47.188;8.896;2023-04-15T05:49:27;56.73;47.68;65.87;;
57439;Laerm;43282;47.188;8.896;2023-04-15T05:51:53;60.42;49.37;74.10;;
57439;Laerm;43282;47.188;8.896;2023-04-15T05:54:18;57.61;47.02;68.23;;
57439;Laerm;43282;47.188;8.896;2023-04-15T05:56:43;58.81;47.91;71.27;;
57439;Laerm;43282;47.188;8.896;2023-04-15T05:59:09;57.43;48.41;69.18;;
57439;Laerm;43282;47.188;8.896;2023-04-15T06:01:34;58.77;50.67;69.61;;
57439;Laerm;43282;47.188;8.896;2023-04-15T06:03:59;57.77;47.88;65.53;;
57439;Laerm;43282;47.188;8.896;2023-04-15T06:06:25;57.17;46.38;68.16;;
57439;Laerm;43282;47.188;8.896;2023-04-15T06:08:51;58.60;48.73;67.91;;
57439;Laerm;43282;47.188;8.896;2023-04-15T06:11:16;56.86;47.70;66.39;;
57439;Laerm;43282;47.188;8.896;2023-04-15T06:13:42;58.82;49.58;69.64;;
57439;Laerm;43282;47.188;8.896;2023-04-15T06:16:07;58.30;49.29;69.97;;
57439;Laerm;43282;47.188;8.896;2023-04-15T06:18:32;59.03;48.85;70.86;;
57439;Laerm;43282;47.188;8.896;2023-04-15T06:20:58;59.25;50.47;67.04;;
57439;Laerm;43282;47.188;8.896;2023-04-15T06:23:23;58.88;47.86;72.54;;
57439;Laerm;43282;47.188;8.896;2023-04-15T06:25:48;61.75;48.64;76.07;;
57439;Laerm;43282;47.188;8.896;2023-04-15T06:28:14;56.65;46.52;65.72;;
57439;Laerm;43282;47.188;8.896;2023-04-15T06:30:39;57.10;48.58;67.09;;
57439;Laerm;43282;47.188;8.896;2023-04-15T06:33:05;58.21;49.15;67.04;;
57439;Laerm;43282;47.188;8.896;2023-04-15T06:35:31;58.68;49.08;67.07;;
57439;Laerm;43282;47.188;8.896;2023-04-15T06:37:56;58.72;47.46;66.59;;
57439;Laerm;43282;47.188;8.896;2023-04-15T06:40:21;61.57;48.58;77.66;;
57439;Laerm;43282;47.188;8.896;2023-04-15T06:42:47;57.73;46.73;69.14;;
57439;Laerm;43282;47.188;8.896;2023-04-15T06:45:12;57.17;48.70;69.02;;
57439;Laerm;43282;47.188;8.896;2023-04-15T06:47:38;57.58;48.63;69.99;;
57439;Laerm;43282;47.188;8.896;2023-04-15T06:50:03;56.89;49.07;65.68;;
57439;Laerm;43282;47.188;8.896;2023-04-15T06:52:29;58.39;48.36;69.23;;
57439;Laerm;43282;47.188;8.896;2023-04-15T06:54:54;59.88;51.33;70.93;;
57439;Laerm;43282;47.188;8.896;2023-04-15T06:57:20;59.85;50.68;73.50;;
57439;Laerm;43282;47.188;8.896;2023-04-15T06:59:45;58.95;50.96;66.61;;
57439;Laerm;43282;47.188;8.896;2023-04-15T07:02:11;59.54;49.90;69.58;;
57439;Laerm;43282;47.188;8.896;2023-04-15T07:04:37;57.19;47.86;68.47;;
57439;Laerm;43282;47.188;8.896;2023-04-15T07:07:02;57.55;47.79;69.32;;
57439;Laerm;43282;47.188;8.896;2023-04-15T07:09:27;58.39;48.98;70.36;;
57439;Laerm;43282;47.188;8.896;2023-04-15T07:11:53;57.35;47.20;69.40;;
57439;Laerm;43282;47.188;8.896;2023-04-15T07:14:19;58.79;48.87;68.93;;
57439;Laerm;43282;47.188;8.896;2023-04-15T07:16:44;57.10;48.40;77.68;;
57439;Laerm;43282;47.188;8.896;2023-04-15T07:19:10;59.12;47.83;75.62;;
57439;Laerm;43282;47.188;8.896;2023-04-15T07:21:36;58.43;50.80;69.14;;
57439;Laerm;43282;47.188;8.896;2023-04-15T07:24:01;58.46;48.97;69.78;;
57439;Laerm;43282;47.188;8.896;2023-04-15T07:26:27;59.84;49.35;71.14;;
57439;Laerm;43282;47.188;8.896;2023-04-15T07:28:52;57.16;47.61;66.83;;
57439;Laerm;43282;47.188;8.896;2023-04-15T07:31:17;59.07;50.58;71.88;;
57439;Laerm;43282;47.188;8.896;2023-04-15T07:33:43;59.50;48.98;74.12;;
57439;Laerm;43282;47.188;8.896;2023-04-15T07:36:08;59.08;49.96;71.75;;
57439;Laerm;43282;47.188;8.896;2023-04-15T07:38:34;59.70;51.56;73.55;;
57439;Laerm;43282;47.188;8.896;2023-04-15T07:40:59;58.58;48.84;66.32;;
57439;Laerm;43282;47.188;8.896;2023-04-15T07:43:25;58.38;47.74;70.91;;
57439;Laerm;43282;47.188;8.896;2023-04-15T07:45:50;57.58;46.91;67.81;;
57439;Laerm;43282;47.188;8.896;2023-04-15T07:48:15;55.51;45.51;65.06;;
57439;Laerm;43282;47.188;8.896;2023-04-15T07:50:41;57.46;44.31;72.52;;
57439;Laerm;43282;47.188;8.896;2023-04-15T07:53:06;59.90;49.57;74.17;;
57439;Laerm;43282;47.188;8.896;2023-04-15T07:55:32;59.24;50.56;71.67;;
57439;Laerm;43282;47.188;8.896;2023-04-15T07:57:57;57.92;46.84;67.44;;
57439;Laerm;43282;47.188;8.896;2023-04-15T08:00:22;57.84;48.69;66.40;;
57439;Laerm;43282;47.188;8.896;2023-04-15T08:02:48;59.47;49.64;70.30;;
57439;Laerm;43282;47.188;8.896;2023-04-15T08:05:13;58.33;47.44;66.58;;
57439;Laerm;43282;47.188;8.896;2023-04-15T08:07:39;58.31;49.69;67.01;;
57439;Laerm;43282;47.188;8.896;2023-04-15T08:10:04;58.60;47.57;71.10;;
57439;Laerm;43282;47.188;8.896;2023-04-15T08:12:30;57.40;48.81;67.81;;
57439;Laerm;43282;47.188;8.896;2023-04-15T08:14:55;57.74;48.25;68.89;;
57439;Laerm;43282;47.188;8.896;2023-04-15T08:17:21;58.64;49.92;67.67;;
57439;Laerm;43282;47.188;8.896;2023-04-15T08:19:46;59.20;49.66;79.28;;
57439;Laerm;43282;47.188;8.896;2023-04-15T08:22:12;62.26;47.86;77.59;;
57439;Laerm;43282;47.188;8.896;2023-04-15T08:24:37;58.34;49.96;69.99;;
57439;Laerm;43282;47.188;8.896;2023-04-15T08:27:03;61.08;49.19;77.29;;
57439;Laerm;43282;47.188;8.896;2023-04-15T08:29:29;57.10;45.89;74.98;;
57439;Laerm;43282;47.188;8.896;2023-04-15T08:31:55;55.55;44.58;66.39;;
57439;Laerm;43282;47.188;8.896;2023-04-15T08:34:20;55.31;44.80;65.99;;
57439;Laerm;43282;47.188;8.896;2023-04-15T08:36:45;67.41;44.54;83.36;;
57439;Laerm;43282;47.188;8.896;2023-04-15T08:39:11;57.38;45.66;68.28;;
57439;Laerm;43282;47.188;8.896;2023-04-15T08:41:41;56.21;44.27;67.55;;
57439;Laerm;43282;47.188;8.896;2023-04-15T08:44:11;57.02;44.51;78.69;;
57439;Laerm;43282;47.188;8.896;2023-04-15T08:46:37;57.50;44.65;67.82;;
57439;Laerm;43282;47.188;8.896;2023-04-15T08:49:03;63.70;43.72;78.29;;
57439;Laerm;43282;47.188;8.896;2023-04-15T08:51:29;56.64;44.07;69.19;;
57439;Laerm;43282;47.188;8.896;2023-04-15T08:53:54;59.09;46.13;69.84;;
57439;Laerm;43282;47.188;8.896;2023-04-15T08:56:21;60.32;44.47;74.13;;
57439;Laerm;43282;47.188;8.896;2023-04-15T08:58:48;57.09;45.69;66.35;;
57439;Laerm;43282;47.188;8.896;2023-04-15T09:01:14;58.81;44.87;70.92;;
57439;Laerm;43282;47.188;8.896;2023-04-15T09:03:40;56.05;44.94;65.53;;
57439;Laerm;43282;47.188;8.896;2023-04-15T09:06:05;56.69;45.31;68.90;;
57439;Laerm;43282;47.188;8.896;2023-04-15T09:08:31;56.77;42.98;66.82;;
57439;Laerm;43282;47.188;8.896;2023-04-15T09:10:56;56.62;43.19;70.60;;
57439;Laerm;43282;47.188;8.896;2023-04-15T09:13:22;54.80;42.16;69.18;;
57439;Laerm;43282;47.188;8.896;2023-04-15T09:15:47;56.68;43.34;69.01;;
57439;Laerm;43282;47.188;8.896;2023-04-15T09:18:13;63.76;42.53;81.55;;
57439;Laerm;43282;47.188;8.896;2023-04-15T09:20:51;58.02;43.29;68.30;;
57439;Laerm;43282;47.188;8.896;2023-04-15T09:23:17;61.12;44.90;76.68;;
57439;Laerm;43282;47.188;8.896;2023-04-15T09:25:42;56.14;44.51;72.64;;
57439;Laerm;43282;47.188;8.896;2023-04-15T09:28:07;55.57;43.97;65.88;;
57439;Laerm;43282;47.188;8.896;2023-04-15T09:30:33;57.38;43.39;69.39;;
57439;Laerm;43282;47.188;8.896;2023-04-15T09:32:59;56.34;43.19;68.73;;
57439;Laerm;43282;47.188;8.896;2023-04-15T09:35:26;55.76;43.04;65.24;;
57439;Laerm;43282;47.188;8.896;2023-04-15T09:37:52;57.07;42.82;68.04;;
57439;Laerm;43282;47.188;8.896;2023-04-15T09:40:30;55.04;42.16;68.45;;
57439;Laerm;43282;47.188;8.896;2023-04-15T09:42:56;56.39;43.44;73.74;;
57439;Laerm;43282;47.188;8.896;2023-04-15T09:45:22;54.48;40.89;65.12;;
57439;Laerm;43282;47.188;8.896;2023-04-15T09:47:47;57.17;41.75;71.41;;
57439;Laerm;43282;47.188;8.896;2023-04-15T09:50:15;56.56;44.27;65.73;;
57439;Laerm;43282;47.188;8.896;2023-04-15T09:52:40;58.58;45.36;68.96;;
57439;Laerm;43282;47.188;8.896;2023-04-15T09:55:07;56.87;44.07;70.57;;
57439;Laerm;43282;47.188;8.896;2023-04-15T09:57:33;57.43;44.39;69.00;;
57439;Laerm;43282;47.188;8.896;2023-04-15T09:59:58;57.22;42.65;68.84;;
57439;Laerm;43282;47.188;8.896;2023-04-15T10:02:24;60.22;42.93;75.37;;
57439;Laerm;43282;47.188;8.896;2023-04-15T10:04:51;59.16;44.27;79.08;;
57439;Laerm;43282;47.188;8.896;2023-04-15T10:07:16;56.49;42.59;71.30;;
57439;Laerm;43282;47.188;8.896;2023-04-15T10:09:44;56.25;43.34;69.13;;
57439;Laerm;43282;47.188;8.896;2023-04-15T10:12:11;55.09;42.71;68.34;;
57439;Laerm;43282;47.188;8.896;2023-04-15T10:14:36;56.40;43.63;68.86;;
57439;Laerm;43282;47.188;8.896;2023-04-15T10:17:03;56.16;43.09;74.36;;
57439;Laerm;43282;47.188;8.896;2023-04-15T10:19:30;55.98;44.62;65.74;;
57439;Laerm;43282;47.188;8.896;2023-04-15T10:21:55;59.28;45.20;74.18;;
57439;Laerm;43282;47.188;8.896;2023-04-15T10:24:21;59.92;45.80;76.32;;
57439;Laerm;43282;47.188;8.896;2023-04-15T10:26:47;57.55;45.20;70.01;;
57439;Laerm;43282;47.188;8.896;2023-04-15T10:29:12;57.03;44.65;68.56;;
57439;Laerm;43282;47.188;8.896;2023-04-15T10:31:38;52.84;44.39;62.96;;
57439;Laerm;43282;47.188;8.896;2023-04-15T10:34:04;55.86;43.94;72.35;;
57439;Laerm;43282;47.188;8.896;2023-04-15T10:36:31;54.95;44.31;68.92;;
57439;Laerm;43282;47.188;8.896;2023-04-15T10:38:56;56.48;45.07;71.99;;
57439;Laerm;43282;47.188;8.896;2023-04-15T10:41:25;58.65;44.58;72.61;;
57439;Laerm;43282;47.188;8.896;2023-04-15T10:46:28;58.44;45.30;71.69;;
57439;Laerm;43282;47.188;8.896;2023-04-15T10:48:59;55.39;44.65;65.96;;
57439;Laerm;43282;47.188;8.896;2023-04-15T10:51:30;56.57;44.47;64.61;;
57439;Laerm;43282;47.188;8.896;2023-04-15T10:53:59;58.73;48.95;69.36;;
57439;Laerm;43282;47.188;8.896;2023-04-15T10:56:24;60.97;50.33;71.48;;
57439;Laerm;43282;47.188;8.896;2023-04-15T10:58:50;60.65;48.94;74.24;;
57439;Laerm;43282;47.188;8.896;2023-04-15T11:01:15;58.80;50.09;66.06;;
57439;Laerm;43282;47.188;8.896;2023-04-15T11:03:41;58.40;48.57;68.84;;
57439;Laerm;43282;47.188;8.896;2023-04-15T11:06:07;58.95;51.72;70.72;;
57439;Laerm;43282;47.188;8.896;2023-04-15T11:11:16;58.49;46.93;67.72;;
57439;Laerm;43282;47.188;8.896;2023-04-15T11:13:51;58.01;50.16;67.97;;
57439;Laerm;43282;47.188;8.896;2023-04-15T11:16:16;65.79;50.39;80.65;;
57439;Laerm;43282;47.188;8.896;2023-04-15T11:18:42;59.13;50.43;70.32;;
57439;Laerm;43282;47.188;8.896;2023-04-15T11:21:17;59.20;50.13;69.24;;
57439;Laerm;43282;47.188;8.896;2023-04-15T11:23:42;59.15;47.28;76.39;;
57439;Laerm;43282;47.188;8.896;2023-04-15T11:26:11;58.96;51.42;66.50;;
57439;Laerm;43282;47.188;8.896;2023-04-15T11:28:37;58.39;45.99;65.79;;
57439;Laerm;43282;47.188;8.896;2023-04-15T11:31:07;58.78;51.96;67.90;;
57439;Laerm;43282;47.188;8.896;2023-04-15T11:33:34;58.49;45.83;75.61;;
57439;Laerm;43282;47.188;8.896;2023-04-15T11:36:00;64.29;48.67;78.88;;
57439;Laerm;43282;47.188;8.896;2023-04-15T11:38:25;59.37;44.62;68.85;;
57439;Laerm;43282;47.188;8.896;2023-04-15T11:40:51;59.00;51.40;68.55;;
57439;Laerm;43282;47.188;8.896;2023-04-15T11:43:21;58.14;42.53;77.05;;
57439;Laerm;43282;47.188;8.896;2023-04-15T11:45:54;59.96;53.13;74.03;;
57439;Laerm;43282;47.188;8.896;2023-04-15T11:48:21;59.35;42.76;73.29;;
57439;Laerm;43282;47.188;8.896;2023-04-15T11:50:51;60.15;45.23;73.16;;
57439;Laerm;43282;47.188;8.896;2023-04-15T11:53:17;58.61;44.19;65.93;;
57439;Laerm;43282;47.188;8.896;2023-04-15T11:55:43;57.56;41.89;75.29;;
57439;Laerm;43282;47.188;8.896;2023-04-15T11:58:09;58.28;41.30;72.75;;
57439;Laerm;43282;47.188;8.896;2023-04-15T12:00:35;56.48;42.53;71.32;;
57439;Laerm;43282;47.188;8.896;2023-04-15T12:03:11;62.29;52.57;78.98;;
57439;Laerm;43282;47.188;8.896;2023-04-15T12:05:55;65.10;53.64;82.18;;
57439;Laerm;43282;47.188;8.896;2023-04-15T12:08:22;56.29;45.80;65.45;;
57439;Laerm;43282;47.188;8.896;2023-04-15T12:10:47;56.99;43.09;76.27;;
57439;Laerm;43282;47.188;8.896;2023-04-15T12:13:13;57.68;44.58;71.07;;
57439;Laerm;43282;47.188;8.896;2023-04-15T12:15:38;56.54;44.35;69.94;;
57439;Laerm;43282;47.188;8.896;2023-04-15T12:18:03;56.68;44.39;70.39;;
57439;Laerm;43282;47.188;8.896;2023-04-15T12:20:29;62.32;43.19;78.86;;
57439;Laerm;43282;47.188;8.896;2023-04-15T12:23:04;55.94;44.80;71.04;;
57439;Laerm;43282;47.188;8.896;2023-04-15T12:25:35;62.39;44.27;79.54;;
57439;Laerm;43282;47.188;8.896;2023-04-15T12:28:00;64.41;44.03;84.14;;
57439;Laerm;43282;47.188;8.896;2023-04-15T12:30:26;58.56;44.90;75.24;;
57439;Laerm;43282;47.188;8.896;2023-04-15T12:32:51;57.25;44.11;68.81;;
57439;Laerm;43282;47.188;8.896;2023-04-15T12:35:16;55.84;44.83;66.72;;
57439;Laerm;43282;47.188;8.896;2023-04-15T12:37:43;64.39;45.01;81.61;;
57439;Laerm;43282;47.188;8.896;2023-04-15T12:40:08;59.62;44.97;75.91;;
57439;Laerm;43282;47.188;8.896;2023-04-15T12:42:34;55.83;45.33;65.07;;
57439;Laerm;43282;47.188;8.896;2023-04-15T12:44:59;59.48;47.32;73.03;;
57439;Laerm;43282;47.188;8.896;2023-04-15T12:47:24;56.56;45.42;66.76;;
57439;Laerm;43282;47.188;8.896;2023-04-15T12:49:50;57.17;45.86;71.82;;
57439;Laerm;43282;47.188;8.896;2023-04-15T12:52:15;58.49;45.20;74.62;;
57439;Laerm;43282;47.188;8.896;2023-04-15T12:54:40;56.26;45.27;65.64;;
57439;Laerm;43282;47.188;8.896;2023-04-15T12:57:06;57.79;45.23;71.59;;
57439;Laerm;43282;47.188;8.896;2023-04-15T12:59:31;63.09;44.87;79.30;;
57439;Laerm;43282;47.188;8.896;2023-04-15T13:01:56;57.26;44.87;66.08;;
57439;Laerm;43282;47.188;8.896;2023-04-15T13:04:22;58.82;44.54;73.48;;
57439;Laerm;43282;47.188;8.896;2023-04-15T13:06:48;55.87;43.81;63.96;;
57439;Laerm;43282;47.188;8.896;2023-04-15T13:09:13;64.09;44.03;82.26;;
57439;Laerm;43282;47.188;8.896;2023-04-15T13:11:39;55.65;44.07;65.50;;
57439;Laerm;43282;47.188;8.896;2023-04-15T13:14:05;56.03;43.99;67.55;;
57439;Laerm;43282;47.188;8.896;2023-04-15T13:16:31;58.19;45.11;71.90;;
57439;Laerm;43282;47.188;8.896;2023-04-15T13:19:00;57.78;44.97;68.49;;
57439;Laerm;43282;47.188;8.896;2023-04-15T13:21:26;56.55;45.83;69.31;;
57439;Laerm;43282;47.188;8.896;2023-04-15T13:23:51;58.33;46.59;67.36;;
57439;Laerm;43282;47.188;8.896;2023-04-15T13:26:17;55.37;44.11;65.05;;
57439;Laerm;43282;47.188;8.896;2023-04-15T13:28:42;62.94;44.43;79.43;;
57439;Laerm;43282;47.188;8.896;2023-04-15T13:31:07;54.73;44.43;69.11;;
57439;Laerm;43282;47.188;8.896;2023-04-15T13:33:33;59.16;44.73;70.35;;
57439;Laerm;43282;47.188;8.896;2023-04-15T13:35:58;63.62;47.08;80.47;;
57439;Laerm;43282;47.188;8.896;2023-04-15T13:38:23;58.86;44.83;70.55;;
57439;Laerm;43282;47.188;8.896;2023-04-15T13:40:49;60.16;45.42;75.80;;
57439;Laerm;43282;47.188;8.896;2023-04-15T13:43:14;57.95;46.10;67.24;;